createdAt,value
2022-07-29T00:01:49.061Z,7.63
2022-07-29T00:02:01.188Z,7.91
2022-07-29T00:02:31.532Z,7.63
2022-07-29T00:03:03.333Z,7.54
2022-07-29T00:03:33.700Z,7.82
2022-07-29T00:04:03.931Z,7.82
2022-07-29T00:04:34.597Z,7.82
2022-07-29T00:05:05.930Z,7.82
2022-07-29T00:05:37.154Z,7.82
2022-07-29T00:06:07.206Z,7.82
2022-07-29T00:06:38.654Z,7.82
2022-07-29T00:07:09.019Z,7.82
2022-07-29T00:07:57.630Z,7.72
2022-07-29T00:11:07.956Z,7.72
2022-07-29T00:11:19.195Z,7.72
2022-07-29T00:11:49.312Z,7.72
2022-07-29T00:12:21.503Z,7.88
2022-07-29T00:12:50.320Z,7.88
2022-07-29T00:13:32.121Z,7.88
2022-07-29T00:13:52.176Z,7.88
2022-07-29T00:14:26.829Z,7.63
2022-07-29T00:14:55.285Z,7.88
2022-07-29T00:15:28.580Z,7.88
2022-07-29T00:15:58.417Z,7.88
2022-07-29T00:16:29.406Z,7.88
2022-07-29T00:16:59.669Z,7.88
2022-07-29T00:17:32.208Z,7.79
2022-07-29T00:18:00.441Z,7.79
2022-07-29T00:18:33.389Z,7.79
2022-07-29T00:19:02.647Z,8.04
2022-07-29T00:19:33.766Z,8.04
2022-07-29T00:20:10.879Z,8.04
2022-07-29T00:20:35.903Z,7.79
2022-07-29T00:21:06.424Z,7.79
2022-07-29T00:21:39.149Z,7.79
2022-07-29T00:22:09.675Z,7.79
2022-07-29T00:22:40.246Z,7.79
2022-07-29T00:23:13.674Z,7.79
2022-07-29T00:23:41.825Z,7.79
2022-07-29T00:24:15.925Z,7.79
2022-07-29T00:24:43.259Z,7.79
2022-07-29T00:25:15.034Z,7.79
2022-07-29T00:25:47.573Z,8.04
2022-07-29T00:26:17.305Z,7.79
2022-07-29T00:26:51.753Z,8.04
2022-07-29T00:27:23.851Z,7.79
2022-07-29T00:27:50.294Z,8.04
2022-07-29T00:28:20.984Z,7.95
2022-07-29T00:29:06.383Z,7.70
2022-07-29T00:29:54.492Z,7.70
2022-07-29T00:33:13.471Z,7.95
2022-07-29T00:33:40.951Z,7.95
2022-07-29T00:34:01.396Z,7.95
2022-07-29T00:34:32.737Z,7.95
2022-07-29T00:35:04.252Z,7.95
2022-07-29T00:35:34.730Z,7.70
2022-07-29T00:36:05.872Z,7.95
2022-07-29T00:36:36.335Z,8.12
2022-07-29T00:37:08.039Z,7.86
2022-07-29T00:37:43.933Z,7.86
2022-07-29T00:38:13.323Z,7.86
2022-07-29T00:38:43.183Z,8.12
2022-07-29T00:39:11.879Z,8.12
2022-07-29T00:39:42.717Z,8.12
2022-07-29T00:40:16.110Z,7.86
2022-07-29T00:40:44.654Z,7.86
2022-07-29T00:41:19.490Z,8.12
2022-07-29T00:41:47.254Z,8.12
2022-07-29T00:42:21.249Z,8.03
2022-07-29T00:42:50.615Z,8.03
2022-07-29T00:43:22.019Z,8.03
2022-07-29T00:43:53.801Z,8.03
2022-07-29T00:44:22.308Z,8.03
2022-07-29T00:46:34.441Z,8.28
2022-07-29T00:47:03.336Z,8.03
2022-07-29T00:47:27.834Z,8.28
2022-07-29T00:48:00.995Z,7.93
2022-07-29T00:48:31.679Z,7.93
2022-07-29T00:49:01.809Z,8.19
2022-07-29T00:49:32.707Z,8.19
2022-07-29T00:50:03.381Z,8.19
2022-07-29T00:50:34.108Z,7.93
2022-07-29T00:51:05.193Z,8.19
2022-07-29T00:51:44.515Z,8.19
2022-07-29T00:52:06.577Z,8.09
2022-07-29T00:53:09.516Z,8.09
2022-07-29T00:53:41.967Z,8.33
2022-07-29T00:54:15.930Z,8.09
2022-07-29T00:54:44.648Z,8.09
2022-07-29T00:55:12.448Z,8.09
2022-07-29T00:55:43.596Z,8.09
2022-07-29T00:56:15.439Z,8.09
2022-07-29T00:56:45.649Z,8.09
2022-07-29T00:57:16.395Z,8.09
2022-07-29T00:57:51.160Z,8.09
2022-07-29T00:58:19.919Z,8.09
2022-07-29T00:58:51.941Z,8.33
2022-07-29T00:59:22.900Z,8.24
2022-07-29T00:59:53.785Z,8.24
2022-07-29T01:01:48.080Z,8.00
2022-07-29T01:01:58.675Z,8.24
2022-07-29T01:02:28.622Z,8.24
2022-07-29T01:03:15.131Z,8.24
2022-07-29T01:03:31.998Z,8.49
2022-07-29T01:04:01.212Z,8.49
2022-07-29T01:04:31.890Z,8.49
2022-07-29T01:05:02.920Z,8.49
2022-07-29T01:05:50.458Z,8.40
2022-07-29T01:06:35.694Z,8.63
2022-07-29T01:07:05.526Z,8.40
2022-07-29T01:07:41.183Z,8.40
2022-07-29T01:08:11.260Z,8.40
2022-07-29T01:08:56.185Z,8.40
2022-07-29T01:09:09.296Z,8.40
2022-07-29T01:09:46.616Z,8.40
2022-07-29T01:10:12.756Z,8.30
2022-07-29T01:10:43.520Z,8.30
2022-07-29T01:11:13.546Z,8.30
2022-07-29T01:12:02.386Z,8.30
2022-07-29T01:12:15.511Z,8.30
2022-07-29T01:12:46.628Z,8.30
2022-07-29T01:13:17.489Z,8.54
2022-07-29T01:13:52.887Z,8.30
2022-07-29T01:14:22.253Z,8.30
2022-07-29T01:14:52.302Z,8.30
2022-07-29T01:15:24.295Z,8.54
2022-07-29T01:15:52.711Z,8.45
2022-07-29T01:16:23.724Z,8.45
2022-07-29T01:16:55.167Z,8.45
2022-07-29T01:17:25.683Z,8.45
2022-07-29T01:17:56.622Z,8.45
2022-07-29T01:18:27.618Z,8.21
2022-07-29T01:18:58.658Z,8.35
2022-07-29T01:19:33.001Z,8.35
2022-07-29T01:20:02.601Z,8.35
2022-07-29T01:20:32.893Z,8.35
2022-07-29T01:21:03.329Z,8.35
2022-07-29T01:21:33.540Z,8.35
2022-07-29T01:22:10.811Z,8.35
2022-07-29T01:22:37.568Z,8.35
2022-07-29T01:23:09.526Z,8.26
2022-07-29T01:23:42.680Z,8.26
2022-07-29T01:24:08.826Z,8.26
2022-07-29T01:24:39.852Z,8.50
2022-07-29T01:25:12.212Z,8.50
2022-07-29T01:25:44.754Z,8.40
2022-07-29T01:26:13.227Z,8.40
2022-07-29T01:26:45.544Z,8.40
2022-07-29T01:27:15.695Z,8.40
2022-07-29T01:27:45.851Z,8.40
2022-07-29T01:28:16.475Z,8.31
2022-07-29T01:28:47.689Z,8.31
2022-07-29T01:29:18.861Z,8.31
2022-07-29T01:30:12.482Z,8.45
2022-07-29T01:30:22.975Z,8.45
2022-07-29T01:30:53.376Z,8.45
2022-07-29T01:31:25.283Z,8.45
2022-07-29T01:31:59.211Z,8.45
2022-07-29T01:32:27.868Z,8.21
2022-07-29T01:32:55.963Z,8.45
2022-07-29T01:33:26.875Z,8.45
2022-07-29T01:33:57.613Z,8.21
2022-07-29T01:34:33.309Z,8.21
2022-07-29T01:34:59.853Z,8.36
2022-07-29T01:35:32.227Z,8.12
2022-07-29T01:36:03.239Z,8.12
2022-07-29T01:36:33.576Z,8.12
2022-07-29T01:37:04.184Z,8.12
2022-07-29T01:37:35.812Z,8.12
2022-07-29T01:38:05.672Z,8.12
2022-07-29T01:39:13.527Z,8.12
2022-07-29T01:39:38.621Z,7.88
2022-07-29T01:40:10.511Z,8.12
2022-07-29T01:40:42.564Z,8.12
2022-07-29T01:41:14.018Z,7.88
2022-07-29T01:41:43.792Z,7.88
2022-07-29T01:42:13.877Z,7.98
2022-07-29T01:42:45.235Z,7.98
2022-07-29T01:43:17.851Z,7.98
2022-07-29T01:43:46.652Z,8.07
2022-07-29T01:44:17.883Z,8.07
2022-07-29T01:44:51.054Z,8.07
2022-07-29T01:45:22.389Z,8.07
2022-07-29T01:45:52.037Z,8.07
2022-07-29T01:46:22.742Z,8.16
2022-07-29T01:46:53.968Z,8.16
2022-07-29T01:47:24.089Z,8.16
2022-07-29T01:47:54.457Z,8.40
2022-07-29T01:48:25.789Z,8.16
2022-07-29T01:48:56.986Z,7.93
2022-07-29T01:49:29.953Z,8.16
2022-07-29T01:49:59.947Z,8.16
2022-07-29T01:50:29.668Z,8.26
2022-07-29T01:51:03.117Z,8.26
2022-07-29T01:51:33.466Z,8.26
2022-07-29T01:52:06.994Z,8.26
2022-07-29T01:52:34.201Z,8.26
2022-07-29T01:53:05.199Z,8.26
2022-07-29T01:53:38.040Z,8.26
2022-07-29T01:54:24.464Z,8.02
2022-07-29T01:54:37.998Z,8.02
2022-07-29T01:55:08.724Z,8.26
2022-07-29T01:55:39.649Z,8.02
2022-07-29T01:56:11.174Z,8.02
2022-07-29T01:56:43.644Z,8.02
2022-07-29T01:57:14.869Z,8.26
2022-07-29T01:57:46.321Z,8.02
2022-07-29T01:58:15.288Z,8.35
2022-07-29T01:58:45.907Z,8.11
2022-07-29T01:59:16.537Z,8.35
2022-07-29T01:59:47.464Z,8.35
2022-07-29T02:01:20.574Z,8.35
2022-07-29T02:01:54.479Z,8.35
2022-07-29T02:02:25.319Z,8.35
2022-07-29T02:02:54.288Z,8.35
2022-07-29T02:03:28.200Z,8.59
2022-07-29T02:03:55.714Z,8.59
2022-07-29T02:04:29.374Z,8.59
2022-07-29T02:04:57.773Z,8.59
2022-07-29T02:05:28.789Z,8.59
2022-07-29T02:06:04.773Z,8.26
2022-07-29T02:06:30.932Z,8.26
2022-07-29T02:07:04.149Z,8.50
2022-07-29T02:07:34.240Z,8.50
2022-07-29T02:08:05.231Z,8.50
2022-07-29T02:08:34.945Z,8.02
2022-07-29T02:09:25.159Z,8.26
2022-07-29T02:09:36.969Z,8.50
2022-07-29T02:10:15.171Z,8.50
2022-07-29T02:10:38.740Z,8.50
2022-07-29T02:11:10.181Z,8.40
2022-07-29T02:11:40.815Z,8.40
2022-07-29T02:12:13.939Z,8.40
2022-07-29T02:12:48.608Z,8.40
2022-07-29T02:13:16.438Z,8.40
2022-07-29T02:13:45.364Z,8.40
2022-07-29T02:14:16.274Z,8.31
2022-07-29T02:14:49.893Z,8.31
2022-07-29T02:15:24.368Z,8.07
2022-07-29T02:15:52.957Z,8.07
2022-07-29T02:16:19.775Z,8.31
2022-07-29T02:16:50.792Z,8.07
2022-07-29T02:17:21.789Z,8.07
2022-07-29T02:17:54.554Z,8.31
2022-07-29T02:18:26.063Z,8.31
2022-07-29T02:19:05.108Z,8.21
2022-07-29T02:19:26.302Z,8.45
2022-07-29T02:20:01.288Z,8.45
2022-07-29T02:20:28.027Z,8.45
2022-07-29T02:20:58.954Z,8.45
2022-07-29T02:21:29.805Z,8.45
2022-07-29T02:22:00.907Z,8.45
2022-07-29T02:22:34.980Z,8.21
2022-07-29T02:23:06.396Z,8.21
2022-07-29T02:23:51.863Z,8.21
2022-07-29T02:24:05.978Z,8.21
2022-07-29T02:24:36.265Z,8.12
2022-07-29T02:25:07.374Z,8.12
2022-07-29T02:25:38.524Z,8.12
2022-07-29T02:26:11.709Z,8.12
2022-07-29T02:26:40.025Z,8.12
2022-07-29T02:27:11.465Z,8.12
2022-07-29T02:27:41.860Z,8.12
2022-07-29T02:28:15.239Z,8.12
2022-07-29T02:28:46.780Z,8.12
2022-07-29T02:29:15.799Z,8.12
2022-07-29T02:29:45.962Z,8.12
2022-07-29T02:30:19.452Z,8.12
2022-07-29T02:30:47.946Z,8.12
2022-07-29T02:31:54.766Z,8.12
2022-07-29T02:32:25.907Z,8.12
2022-07-29T02:33:09.517Z,8.12
2022-07-29T02:33:25.418Z,8.12
2022-07-29T02:33:55.566Z,8.12
2022-07-29T02:34:25.941Z,8.12
2022-07-29T02:34:56.533Z,8.12
2022-07-29T02:35:27.050Z,8.36
2022-07-29T02:35:57.850Z,8.12
2022-07-29T02:36:28.731Z,8.12
2022-07-29T02:37:00.001Z,8.12
2022-07-29T02:37:30.791Z,8.36
2022-07-29T02:38:01.625Z,8.12
2022-07-29T02:38:34.274Z,8.12
2022-07-29T02:39:05.982Z,8.12
2022-07-29T02:39:36.655Z,8.12
2022-07-29T02:40:06.982Z,8.12
2022-07-29T02:40:37.789Z,8.36
2022-07-29T02:41:07.989Z,8.12
2022-07-29T02:41:38.610Z,8.12
2022-07-29T02:42:11.285Z,8.36
2022-07-29T02:42:41.148Z,8.36
2022-07-29T02:43:12.333Z,8.36
2022-07-29T02:43:46.668Z,8.36
2022-07-29T02:44:16.238Z,8.36
2022-07-29T02:44:46.225Z,8.36
2022-07-29T02:45:20.264Z,8.36
2022-07-29T02:45:47.401Z,8.36
2022-07-29T02:46:28.053Z,8.36
2022-07-29T02:46:51.043Z,8.12
2022-07-29T02:47:22.823Z,8.36
2022-07-29T02:47:50.787Z,8.36
2022-07-29T02:48:22.108Z,8.36
2022-07-29T02:48:53.892Z,8.36
2022-07-29T02:49:56.325Z,8.36
2022-07-29T02:50:27.015Z,8.12
2022-07-29T02:51:00.077Z,8.36
2022-07-29T02:51:43.686Z,8.12
2022-07-29T02:52:01.915Z,8.36
2022-07-29T02:52:33.247Z,8.12
2022-07-29T02:53:01.698Z,8.12
2022-07-29T02:53:31.655Z,8.36
2022-07-29T02:54:02.824Z,8.12
2022-07-29T02:54:36.708Z,8.12
2022-07-29T02:55:08.957Z,8.26
2022-07-29T02:55:37.539Z,8.26
2022-07-29T02:56:07.826Z,8.02
2022-07-29T02:56:38.705Z,8.12
2022-07-29T02:57:10.171Z,8.36
2022-07-29T02:57:54.717Z,8.36
2022-07-29T02:58:12.082Z,8.02
2022-07-29T02:58:42.415Z,8.12
2022-07-29T02:59:13.278Z,8.12
2022-07-29T02:59:46.508Z,8.26
2022-07-29T03:07:43.442Z,8.36
2022-07-29T03:08:00.284Z,8.26
2022-07-29T03:08:31.034Z,8.26
2022-07-29T03:09:12.610Z,8.26
2022-07-29T03:09:33.003Z,8.17
2022-07-29T03:10:10.928Z,8.17
2022-07-29T03:10:37.091Z,8.17
2022-07-29T03:11:13.713Z,8.17
2022-07-29T03:11:42.431Z,8.17
2022-07-29T03:12:08.931Z,8.17
2022-07-29T03:12:39.256Z,8.17
2022-07-29T03:13:12.184Z,8.17
2022-07-29T03:13:41.148Z,8.17
2022-07-29T03:14:14.815Z,8.17
2022-07-29T03:14:43.314Z,8.39
2022-07-29T03:16:22.335Z,8.17
2022-07-29T03:16:51.407Z,8.17
2022-07-29T03:17:18.518Z,8.17
2022-07-29T03:17:49.034Z,8.17
2022-07-29T03:18:20.258Z,8.17
2022-07-29T03:19:22.098Z,8.17
2022-07-29T03:19:52.932Z,8.17
2022-07-29T03:20:25.481Z,8.17
2022-07-29T03:21:08.583Z,8.39
2022-07-29T03:21:27.698Z,8.39
2022-07-29T03:22:02.361Z,8.39
2022-07-29T03:22:36.379Z,8.17
2022-07-29T03:23:17.894Z,8.17
2022-07-29T03:23:33.257Z,8.17
2022-07-29T03:24:06.862Z,8.17
2022-07-29T03:24:32.397Z,8.39
2022-07-29T03:25:33.952Z,8.17
2022-07-29T03:26:52.958Z,8.17
2022-07-29T03:27:08.383Z,8.17
2022-07-29T03:27:38.553Z,8.17
2022-07-29T03:28:09.272Z,8.39
2022-07-29T03:28:40.024Z,8.17
2022-07-29T03:29:11.198Z,8.39
2022-07-29T03:29:43.711Z,8.17
2022-07-29T03:30:20.374Z,8.17
2022-07-29T03:30:46.680Z,8.17
2022-07-29T03:31:17.371Z,8.17
2022-07-29T03:31:48.119Z,8.39
2022-07-29T03:32:22.376Z,8.39
2022-07-29T03:32:52.126Z,8.39
2022-07-29T03:33:21.722Z,8.17
2022-07-29T03:34:08.048Z,8.17
2022-07-29T03:34:21.327Z,8.17
2022-07-29T03:34:52.089Z,8.39
2022-07-29T03:35:23.306Z,8.17
2022-07-29T03:35:53.919Z,8.17
2022-07-29T03:36:28.790Z,8.26
2022-07-29T03:36:57.865Z,8.26
2022-07-29T03:37:28.330Z,8.26
2022-07-29T03:38:01.016Z,8.26
2022-07-29T03:38:29.211Z,8.26
2022-07-29T03:38:59.955Z,8.49
2022-07-29T03:39:31.320Z,8.49
2022-07-29T03:40:02.441Z,8.49
2022-07-29T03:40:37.836Z,8.49
2022-07-29T03:41:04.782Z,8.49
2022-07-29T03:42:11.059Z,8.49
2022-07-29T03:43:10.795Z,8.49
2022-07-29T03:43:39.843Z,8.49
2022-07-29T03:44:10.163Z,8.49
2022-07-29T03:44:41.456Z,8.26
2022-07-29T03:45:13.489Z,8.49
2022-07-29T03:46:00.619Z,8.26
2022-07-29T03:46:14.363Z,8.26
2022-07-29T03:46:48.886Z,8.26
2022-07-29T03:47:51.045Z,8.26
2022-07-29T03:48:18.824Z,8.26
2022-07-29T03:48:50.149Z,8.26
2022-07-29T03:49:23.319Z,8.26
2022-07-29T03:49:54.261Z,8.26
2022-07-29T03:50:22.730Z,8.49
2022-07-29T03:51:00.131Z,8.49
2022-07-29T03:51:33.770Z,8.49
2022-07-29T03:51:55.309Z,8.26
2022-07-29T03:52:28.619Z,8.26
2022-07-29T03:52:58.574Z,8.26
2022-07-29T03:53:29.556Z,8.26
2022-07-29T03:54:04.994Z,8.26
2022-07-29T03:54:30.645Z,8.49
2022-07-29T03:55:01.520Z,8.26
2022-07-29T03:55:35.199Z,8.49
2022-07-29T03:56:03.369Z,8.26
2022-07-29T03:56:34.314Z,8.49
2022-07-29T03:57:08.386Z,8.26
2022-07-29T03:57:38.556Z,8.26
2022-07-29T03:58:08.987Z,8.39
2022-07-29T03:58:39.377Z,8.17
2022-07-29T03:59:09.411Z,8.39
2022-07-29T03:59:40.485Z,8.39
2022-07-29T04:00:44.976Z,8.17
2022-07-29T04:01:13.729Z,8.39
2022-07-29T04:01:44.308Z,8.39
2022-07-29T04:02:20.081Z,8.17
2022-07-29T04:02:46.929Z,8.39
2022-07-29T04:03:19.925Z,8.39
2022-07-29T04:03:50.792Z,8.17
2022-07-29T04:04:20.696Z,8.39
2022-07-29T04:04:50.383Z,8.39
2022-07-29T04:05:21.765Z,8.39
2022-07-29T04:06:09.560Z,8.17
2022-07-29T04:06:27.403Z,8.17
2022-07-29T04:06:54.479Z,8.17
2022-07-29T04:07:29.148Z,8.17
2022-07-29T04:07:59.591Z,8.39
2022-07-29T04:08:29.314Z,8.39
2022-07-29T04:08:59.525Z,8.17
2022-07-29T04:09:29.528Z,8.17
2022-07-29T04:10:00.314Z,8.17
2022-07-29T04:10:34.167Z,8.39
2022-07-29T04:11:05.940Z,8.39
2022-07-29T04:11:33.457Z,8.49
2022-07-29T04:12:04.681Z,8.26
2022-07-29T04:12:35.326Z,8.49
2022-07-29T04:13:06.342Z,8.26
2022-07-29T04:13:37.892Z,8.26
2022-07-29T04:14:11.139Z,8.26
2022-07-29T04:14:57.212Z,8.49
2022-07-29T04:15:23.428Z,8.26
2022-07-29T04:15:42.680Z,8.36
2022-07-29T04:16:12.696Z,8.36
2022-07-29T04:16:43.334Z,8.36
2022-07-29T04:17:14.359Z,8.36
2022-07-29T04:17:45.042Z,8.36
2022-07-29T04:18:16.948Z,8.36
2022-07-29T04:18:47.631Z,8.36
2022-07-29T04:19:19.843Z,8.36
2022-07-29T04:19:49.987Z,8.36
2022-07-29T04:20:21.184Z,8.36
2022-07-29T04:20:51.461Z,8.12
2022-07-29T04:21:22.170Z,8.12
2022-07-29T04:21:53.285Z,8.45
2022-07-29T04:22:24.493Z,8.45
2022-07-29T04:22:56.969Z,8.45
2022-07-29T04:23:53.915Z,8.21
2022-07-29T04:23:59.700Z,8.45
2022-07-29T04:24:30.326Z,8.45
2022-07-29T04:25:31.856Z,8.45
2022-07-29T04:26:01.818Z,8.45
2022-07-29T04:26:32.286Z,8.45
2022-07-29T04:27:03.931Z,8.21
2022-07-29T04:27:34.387Z,8.45
2022-07-29T04:28:06.447Z,8.21
2022-07-29T04:28:37.717Z,8.21
2022-07-29T04:29:09.285Z,8.21
2022-07-29T04:29:56.310Z,8.45
2022-07-29T04:30:21.925Z,8.45
2022-07-29T04:30:40.976Z,8.21
2022-07-29T04:31:11.777Z,8.45
2022-07-29T04:31:43.222Z,8.45
2022-07-29T04:32:13.529Z,8.45
2022-07-29T04:33:01.925Z,8.36
2022-07-29T04:33:15.242Z,8.36
2022-07-29T04:33:50.268Z,8.36
2022-07-29T04:34:19.584Z,8.12
2022-07-29T04:34:50.191Z,8.36
2022-07-29T04:35:20.937Z,8.36
2022-07-29T04:35:54.945Z,8.36
2022-07-29T04:36:29.357Z,8.36
2022-07-29T04:36:52.574Z,8.36
2022-07-29T04:37:23.306Z,8.36
2022-07-29T04:37:54.310Z,8.36
2022-07-29T04:38:30.431Z,8.36
2022-07-29T04:38:56.682Z,8.36
2022-07-29T04:39:30.588Z,8.36
2022-07-29T04:40:00.280Z,8.49
2022-07-29T04:40:47.299Z,8.49
2022-07-29T04:41:03.678Z,8.26
2022-07-29T04:41:34.754Z,8.49
2022-07-29T04:42:02.518Z,8.49
2022-07-29T04:42:33.472Z,8.49
2022-07-29T04:43:09.286Z,8.49
2022-07-29T04:43:37.958Z,8.49
2022-07-29T04:44:12.243Z,8.49
2022-07-29T04:44:39.624Z,8.71
2022-07-29T04:45:14.211Z,8.62
2022-07-29T04:45:41.224Z,8.39
2022-07-29T04:46:10.894Z,8.39
2022-07-29T04:46:42.427Z,8.62
2022-07-29T04:47:12.558Z,8.62
2022-07-29T04:47:49.739Z,8.62
2022-07-29T04:48:14.402Z,8.62
2022-07-29T04:48:45.422Z,8.62
2022-07-29T04:49:49.845Z,8.39
2022-07-29T04:50:20.939Z,8.39
2022-07-29T04:50:50.686Z,8.52
2022-07-29T04:51:20.808Z,8.52
2022-07-29T04:51:52.180Z,8.52
2022-07-29T04:52:22.884Z,8.52
2022-07-29T04:52:54.066Z,8.52
2022-07-29T04:53:25.066Z,8.52
2022-07-29T04:53:55.512Z,8.52
2022-07-29T04:54:28.741Z,8.30
2022-07-29T04:54:59.260Z,8.30
2022-07-29T04:55:29.646Z,8.30
2022-07-29T04:56:00.733Z,8.30
2022-07-29T04:57:10.325Z,8.52
2022-07-29T04:57:32.573Z,8.30
2022-07-29T04:58:03.837Z,8.52
2022-07-29T04:58:34.716Z,8.52
2022-07-29T04:59:06.429Z,8.52
2022-07-29T04:59:36.939Z,8.74
2022-07-29T05:02:48.013Z,8.74
2022-07-29T05:03:13.902Z,8.74
2022-07-29T05:03:44.747Z,8.74
2022-07-29T05:04:21.504Z,8.74
2022-07-29T05:04:58.068Z,8.74
2022-07-29T05:05:21.949Z,8.52
2022-07-29T05:05:50.709Z,8.62
2022-07-29T05:06:21.513Z,8.62
2022-07-29T05:06:53.663Z,8.62
2022-07-29T05:07:24.157Z,8.84
2022-07-29T05:07:52.811Z,8.84
2022-07-29T05:08:24.685Z,8.93
2022-07-29T05:08:54.734Z,8.71
2022-07-29T05:09:25.637Z,8.71
2022-07-29T05:10:02.045Z,8.49
2022-07-29T05:10:27.710Z,8.58
2022-07-29T05:11:01.743Z,8.58
2022-07-29T05:11:31.363Z,8.36
2022-07-29T05:12:02.348Z,8.45
2022-07-29T05:12:32.039Z,8.68
2022-07-29T05:13:02.746Z,8.68
2022-07-29T05:13:45.311Z,8.54
2022-07-29T05:14:04.567Z,8.31
2022-07-29T05:14:35.462Z,8.31
2022-07-29T05:15:11.691Z,8.64
2022-07-29T05:15:37.726Z,8.64
2022-07-29T05:16:13.009Z,8.64
2022-07-29T05:16:41.653Z,8.73
2022-07-29T05:17:14.606Z,8.96
2022-07-29T05:17:42.099Z,8.96
2022-07-29T05:18:13.441Z,8.83
2022-07-29T05:18:43.545Z,8.92
2022-07-29T05:19:14.902Z,9.15
2022-07-29T05:19:45.598Z,9.15
2022-07-29T05:20:17.960Z,9.02
2022-07-29T05:20:52.214Z,9.11
2022-07-29T05:21:27.636Z,8.63
2022-07-29T05:21:52.227Z,8.73
2022-07-29T05:22:22.119Z,8.97
2022-07-29T05:22:54.864Z,8.97
2022-07-29T05:23:22.725Z,8.97
2022-07-29T05:23:56.271Z,9.06
2022-07-29T05:24:24.779Z,9.16
2022-07-29T05:24:55.708Z,8.92
2022-07-29T05:25:43.917Z,8.92
2022-07-29T05:26:02.411Z,8.68
2022-07-29T05:26:28.743Z,8.77
2022-07-29T05:27:01.766Z,9.01
2022-07-29T05:27:32.183Z,8.77
2022-07-29T05:28:07.612Z,8.77
2022-07-29T05:29:03.921Z,9.11
2022-07-29T05:29:43.717Z,8.61
2022-07-29T05:30:09.285Z,8.87
2022-07-29T05:30:36.670Z,8.87
2022-07-29T05:31:07.833Z,9.11
2022-07-29T05:31:38.625Z,8.96
2022-07-29T05:32:11.927Z,8.96
2022-07-29T05:32:43.141Z,8.96
2022-07-29T05:33:35.807Z,8.71
2022-07-29T05:33:43.274Z,8.96
2022-07-29T05:34:14.117Z,8.71
2022-07-29T05:34:50.443Z,8.96
2022-07-29T05:35:17.978Z,8.96
2022-07-29T05:35:47.006Z,8.96
2022-07-29T05:36:18.067Z,8.71
2022-07-29T05:36:48.545Z,8.71
2022-07-29T05:37:22.927Z,8.71
2022-07-29T05:37:52.422Z,8.71
2022-07-29T05:38:22.589Z,8.71
2022-07-29T05:38:53.203Z,8.96
2022-07-29T05:39:46.657Z,8.96
2022-07-29T05:39:56.921Z,8.96
2022-07-29T05:40:29.059Z,8.96
2022-07-29T05:40:59.080Z,8.96
2022-07-29T05:41:27.697Z,8.96
2022-07-29T05:41:58.906Z,8.71
2022-07-29T05:42:31.497Z,8.71
2022-07-29T05:43:03.634Z,8.71
2022-07-29T05:43:34.649Z,8.96
2022-07-29T05:44:03.487Z,8.96
2022-07-29T05:44:34.076Z,8.71
2022-07-29T05:45:06.599Z,8.71
2022-07-29T05:45:35.658Z,8.71
2022-07-29T05:46:09.042Z,8.71
2022-07-29T05:46:43.595Z,8.87
2022-07-29T05:47:08.739Z,8.87
2022-07-29T05:47:44.628Z,8.87
2022-07-29T05:48:14.079Z,8.87
2022-07-29T05:49:27.358Z,8.61
2022-07-29T05:49:47.416Z,8.87
2022-07-29T05:50:15.315Z,9.11
2022-07-29T05:50:45.605Z,9.01
2022-07-29T05:51:17.223Z,9.01
2022-07-29T05:51:48.910Z,9.01
2022-07-29T05:52:18.757Z,9.01
2022-07-29T05:52:49.473Z,9.01
2022-07-29T05:53:38.341Z,9.01
2022-07-29T05:53:53.411Z,9.01
2022-07-29T05:54:24.732Z,8.77
2022-07-29T05:54:53.924Z,9.01
2022-07-29T05:55:25.159Z,9.01
2022-07-29T05:55:59.383Z,8.92
2022-07-29T05:56:26.845Z,9.16
2022-07-29T05:56:58.019Z,9.16
2022-07-29T05:57:28.926Z,9.16
2022-07-29T05:57:59.546Z,8.92
2022-07-29T05:58:33.285Z,8.92
2022-07-29T05:59:03.568Z,9.16
2022-07-29T05:59:34.955Z,8.92
2022-07-29T06:00:13.049Z,8.92
2022-07-29T06:00:35.659Z,8.82
2022-07-29T06:01:06.716Z,9.06
2022-07-29T06:01:37.547Z,8.82
2022-07-29T06:02:44.601Z,8.82
2022-07-29T06:03:10.259Z,8.97
2022-07-29T06:03:41.633Z,8.73
2022-07-29T06:04:14.041Z,8.73
2022-07-29T06:04:45.041Z,8.73
2022-07-29T06:05:17.364Z,8.73
2022-07-29T06:05:45.061Z,8.97
2022-07-29T06:06:16.168Z,9.21
2022-07-29T06:06:46.985Z,8.97
2022-07-29T06:07:52.486Z,8.73
2022-07-29T06:08:51.738Z,8.73
2022-07-29T06:09:24.019Z,8.73
2022-07-29T06:10:26.265Z,8.82
2022-07-29T06:10:55.051Z,8.82
2022-07-29T06:11:25.947Z,8.82
2022-07-29T06:11:56.583Z,8.82
2022-07-29T06:12:27.680Z,8.92
2022-07-29T06:12:58.977Z,8.92
2022-07-29T06:13:34.514Z,8.68
2022-07-29T06:14:00.660Z,8.92
2022-07-29T06:14:34.586Z,9.01
2022-07-29T06:15:06.780Z,8.77
2022-07-29T06:15:34.827Z,9.11
2022-07-29T06:16:05.373Z,8.96
2022-07-29T06:16:36.363Z,8.96
2022-07-29T06:17:07.345Z,8.96
2022-07-29T06:17:37.787Z,9.15
2022-07-29T06:18:09.670Z,9.24
2022-07-29T06:18:39.952Z,9.08
2022-07-29T06:19:27.873Z,8.84
2022-07-29T06:19:43.994Z,9.18
2022-07-29T06:20:45.384Z,9.46
2022-07-29T06:21:18.952Z,9.31
2022-07-29T06:21:47.105Z,9.15
2022-07-29T06:22:17.525Z,9.24
2022-07-29T06:22:47.914Z,8.98
2022-07-29T06:23:30.229Z,9.07
2022-07-29T06:23:55.761Z,9.52
2022-07-29T06:24:21.005Z,9.35
2022-07-29T06:24:54.389Z,9.35
2022-07-29T06:25:25.584Z,9.19
2022-07-29T06:25:55.046Z,9.53
2022-07-29T06:26:30.359Z,9.28
2022-07-29T06:26:55.897Z,9.63
2022-07-29T06:27:27.246Z,9.30
2022-07-29T06:28:33.716Z,9.30
2022-07-29T06:28:40.294Z,9.39
2022-07-29T06:29:00.229Z,9.49
2022-07-29T06:29:31.369Z,9.58
2022-07-29T06:30:07.002Z,9.93
2022-07-29T06:30:35.445Z,9.48
2022-07-29T06:31:05.992Z,8.93
2022-07-29T06:31:35.698Z,9.67
2022-07-29T06:32:06.666Z,9.40
2022-07-29T06:32:40.076Z,9.49
2022-07-29T06:33:07.991Z,9.20
2022-07-29T06:33:39.111Z,9.30
2022-07-29T06:34:10.239Z,9.48
2022-07-29T06:34:40.757Z,9.48
2022-07-29T06:35:38.249Z,9.57
2022-07-29T06:36:16.304Z,9.38
2022-07-29T06:36:46.006Z,9.38
2022-07-29T06:37:16.559Z,9.76
2022-07-29T06:37:47.009Z,9.27
2022-07-29T06:38:31.798Z,8.97
2022-07-29T06:38:51.275Z,9.27
2022-07-29T06:39:25.016Z,9.27
2022-07-29T06:39:59.301Z,9.27
2022-07-29T06:40:33.304Z,9.06
2022-07-29T06:40:55.745Z,9.36
2022-07-29T06:41:26.057Z,9.06
2022-07-29T06:41:55.670Z,9.75
2022-07-29T06:42:26.355Z,9.45
2022-07-29T06:42:56.844Z,8.93
2022-07-29T06:43:28.156Z,9.02
2022-07-29T06:43:59.741Z,9.52
2022-07-29T06:44:30.151Z,10.12
2022-07-29T06:45:15.026Z,9.20
2022-07-29T06:45:35.541Z,9.29
2022-07-29T06:46:05.643Z,9.48
2022-07-29T06:46:35.998Z,9.57
2022-07-29T06:47:06.678Z,9.35
2022-07-29T06:47:36.453Z,9.75
2022-07-29T06:48:07.342Z,10.16
2022-07-29T06:48:37.774Z,9.62
2022-07-29T06:49:09.429Z,9.93
2022-07-29T06:49:41.067Z,10.25
2022-07-29T06:50:13.834Z,9.93
2022-07-29T06:50:42.037Z,9.71
2022-07-29T06:51:16.395Z,9.48
2022-07-29T06:51:46.251Z,10.12
2022-07-29T06:52:16.531Z,9.80
2022-07-29T06:52:47.502Z,9.25
2022-07-29T06:53:20.919Z,9.89
2022-07-29T06:53:59.590Z,9.98
2022-07-29T06:54:19.254Z,9.67
2022-07-29T06:54:49.896Z,9.34
2022-07-29T06:55:25.046Z,9.34
2022-07-29T06:55:52.051Z,9.67
2022-07-29T06:56:25.029Z,9.34
2022-07-29T06:56:56.162Z,9.98
2022-07-29T06:57:27.765Z,9.34
2022-07-29T06:58:15.973Z,9.34
2022-07-29T06:58:29.504Z,9.67
2022-07-29T06:58:57.871Z,9.98
2022-07-29T06:59:35.012Z,9.76
2022-07-29T06:59:59.901Z,9.76
2022-07-29T07:00:54.407Z,9.52
2022-07-29T07:01:02.076Z,10.16
2022-07-29T07:01:33.581Z,10.26
2022-07-29T07:02:06.090Z,9.61
2022-07-29T07:02:36.909Z,10.57
2022-07-29T07:03:08.839Z,9.61
2022-07-29T07:03:36.930Z,9.61
2022-07-29T07:04:08.916Z,9.61
2022-07-29T07:04:39.073Z,9.61
2022-07-29T07:05:10.450Z,9.61
2022-07-29T07:05:41.387Z,9.94
2022-07-29T07:06:14.981Z,9.94
2022-07-29T07:06:43.095Z,9.61
2022-07-29T07:07:16.900Z,9.61
2022-07-29T07:07:46.589Z,9.37
2022-07-29T07:08:17.168Z,10.12
2022-07-29T07:08:47.672Z,10.53
2022-07-29T07:09:18.296Z,9.88
2022-07-29T07:09:48.883Z,9.21
2022-07-29T07:10:22.709Z,9.30
2022-07-29T07:10:51.164Z,9.73
2022-07-29T07:11:22.232Z,9.73
2022-07-29T07:11:52.978Z,10.15
2022-07-29T07:12:26.220Z,9.82
2022-07-29T07:13:27.168Z,10.15
2022-07-29T07:14:02.668Z,10.15
2022-07-29T07:14:28.061Z,9.82
2022-07-29T07:14:59.184Z,9.91
2022-07-29T07:15:39.749Z,10.00
2022-07-29T07:16:01.159Z,13.74
2022-07-29T07:16:32.936Z,11.71
2022-07-29T07:17:03.339Z,11.07
2022-07-29T07:17:36.642Z,10.09
2022-07-29T07:18:07.956Z,10.42
2022-07-29T07:18:37.269Z,10.00
2022-07-29T07:19:07.511Z,10.15
2022-07-29T07:19:38.471Z,11.74
2022-07-29T07:20:10.400Z,11.56
2022-07-29T07:20:43.041Z,11.77
2022-07-29T07:21:11.250Z,10.85
2022-07-29T07:21:48.082Z,9.94
2022-07-29T07:22:13.355Z,10.16
2022-07-29T07:22:46.479Z,11.31
2022-07-29T07:23:17.823Z,12.17
2022-07-29T07:23:47.905Z,11.51
2022-07-29T07:24:18.293Z,12.07
2022-07-29T07:24:49.511Z,12.07
2022-07-29T07:25:19.398Z,12.36
2022-07-29T07:25:50.046Z,10.92